sensor_id;sensor_type;location;lat;lon;timestamp;P1;durP1;ratioP1;P2;durP2;ratioP2
52244;SDS011;55759;51.586;-1.758;2023-07-09T19:03:54;13.00;;;5.23;;
52244;SDS011;55759;51.586;-1.758;2023-07-09T19:08:46;6.78;;;1.70;;
52244;SDS011;55759;51.586;-1.758;2023-07-09T19:11:11;9.68;;;1.88;;
52244;SDS011;55759;51.586;-1.758;2023-07-09T19:13:37;7.25;;;1.88;;
52244;SDS011;55759;51.586;-1.758;2023-07-09T19:16:04;7.25;;;1.90;;
52244;SDS011;55759;51.586;-1.758;2023-07-09T19:18:52;6.72;;;1.77;;
52244;SDS011;55759;51.586;-1.758;2023-07-09T19:21:18;7.93;;;1.67;;
52244;SDS011;55759;51.586;-1.758;2023-07-09T19:23:46;6.82;;;1.77;;
52244;SDS011;55759;51.586;-1.758;2023-07-09T19:26:12;6.93;;;1.80;;
52244;SDS011;55759;51.586;-1.758;2023-07-09T19:28:38;6.60;;;1.90;;
52244;SDS011;55759;51.586;-1.758;2023-07-09T19:31:03;6.03;;;1.90;;
52244;SDS011;55759;51.586;-1.758;2023-07-09T19:36:02;4.55;;;1.70;;
52244;SDS011;55759;51.586;-1.758;2023-07-09T19:38:28;6.72;;;2.10;;
52244;SDS011;55759;51.586;-1.758;2023-07-09T19:40:54;7.40;;;1.85;;
52244;SDS011;55759;51.586;-1.758;2023-07-09T19:43:20;7.85;;;1.85;;
52244;SDS011;55759;51.586;-1.758;2023-07-09T19:45:46;6.82;;;2.15;;
52244;SDS011;55759;51.586;-1.758;2023-07-09T19:48:15;5.38;;;1.70;;
52244;SDS011;55759;51.586;-1.758;2023-07-09T19:50:42;6.47;;;2.00;;
52244;SDS011;55759;51.586;-1.758;2023-07-09T19:53:25;7.65;;;2.17;;
52244;SDS011;55759;51.586;-1.758;2023-07-09T19:55:52;5.25;;;1.90;;
52244;SDS011;55759;51.586;-1.758;2023-07-09T19:58:21;9.43;;;1.90;;
52244;SDS011;55759;51.586;-1.758;2023-07-09T20:00:47;8.63;;;2.10;;
52244;SDS011;55759;51.586;-1.758;2023-07-09T20:06:20;7.50;;;2.30;;
52244;SDS011;55759;51.586;-1.758;2023-07-09T20:08:46;7.20;;;1.90;;
52244;SDS011;55759;51.586;-1.758;2023-07-09T20:13:38;5.28;;;1.95;;
52244;SDS011;55759;51.586;-1.758;2023-07-09T20:16:04;8.63;;;2.10;;
52244;SDS011;55759;51.586;-1.758;2023-07-09T20:18:38;7.63;;;1.83;;
52244;SDS011;55759;51.586;-1.758;2023-07-09T20:21:11;9.20;;;2.10;;
52244;SDS011;55759;51.586;-1.758;2023-07-09T20:23:42;8.30;;;1.80;;
52244;SDS011;55759;51.586;-1.758;2023-07-09T20:26:11;10.40;;;2.05;;
52244;SDS011;55759;51.586;-1.758;2023-07-09T20:28:38;9.05;;;2.20;;
52244;SDS011;55759;51.586;-1.758;2023-07-09T20:31:10;8.52;;;2.08;;
52244;SDS011;55759;51.586;-1.758;2023-07-09T20:33:45;8.00;;;1.73;;
52244;SDS011;55759;51.586;-1.758;2023-07-09T20:36:14;9.38;;;2.00;;
52244;SDS011;55759;51.586;-1.758;2023-07-09T20:38:43;6.07;;;2.20;;
52244;SDS011;55759;51.586;-1.758;2023-07-09T20:41:12;7.70;;;2.13;;
52244;SDS011;55759;51.586;-1.758;2023-07-09T20:43:43;7.75;;;2.30;;
52244;SDS011;55759;51.586;-1.758;2023-07-09T20:49:16;11.70;;;2.60;;
52244;SDS011;55759;51.586;-1.758;2023-07-09T20:51:44;8.98;;;2.50;;
52244;SDS011;55759;51.586;-1.758;2023-07-09T20:54:35;8.27;;;2.20;;
52244;SDS011;55759;51.586;-1.758;2023-07-09T20:57:01;9.43;;;2.40;;
52244;SDS011;55759;51.586;-1.758;2023-07-09T20:59:29;10.65;;;3.00;;
52244;SDS011;55759;51.586;-1.758;2023-07-09T21:01:56;11.05;;;3.13;;
52244;SDS011;55759;51.586;-1.758;2023-07-09T21:04:23;9.63;;;2.47;;
52244;SDS011;55759;51.586;-1.758;2023-07-09T21:06:49;10.75;;;2.60;;
52244;SDS011;55759;51.586;-1.758;2023-07-09T21:09:18;13.50;;;2.65;;
52244;SDS011;55759;51.586;-1.758;2023-07-09T21:11:55;8.40;;;2.10;;
52244;SDS011;55759;51.586;-1.758;2023-07-09T21:14:22;8.60;;;2.83;;
52244;SDS011;55759;51.586;-1.758;2023-07-09T21:16:48;12.65;;;2.38;;
52244;SDS011;55759;51.586;-1.758;2023-07-09T21:19:23;10.60;;;2.60;;
52244;SDS011;55759;51.586;-1.758;2023-07-09T21:21:55;10.63;;;2.65;;
52244;SDS011;55759;51.586;-1.758;2023-07-09T21:24:24;13.25;;;2.60;;
52244;SDS011;55759;51.586;-1.758;2023-07-09T21:26:51;10.10;;;2.88;;
52244;SDS011;55759;51.586;-1.758;2023-07-09T21:29:17;10.88;;;2.70;;
52244;SDS011;55759;51.586;-1.758;2023-07-09T21:31:46;13.27;;;2.95;;
52244;SDS011;55759;51.586;-1.758;2023-07-09T21:34:20;11.80;;;2.83;;
52244;SDS011;55759;51.586;-1.758;2023-07-09T21:36:52;7.72;;;2.70;;
52244;SDS011;55759;51.586;-1.758;2023-07-09T21:39:20;8.43;;;2.78;;
52244;SDS011;55759;51.586;-1.758;2023-07-09T21:41:50;10.00;;;2.45;;
52244;SDS011;55759;51.586;-1.758;2023-07-09T21:44:26;9.63;;;2.67;;
52244;SDS011;55759;51.586;-1.758;2023-07-09T21:46:55;11.52;;;2.38;;
52244;SDS011;55759;51.586;-1.758;2023-07-09T21:49:46;10.07;;;2.47;;
52244;SDS011;55759;51.586;-1.758;2023-07-09T21:52:18;9.27;;;2.30;;
52244;SDS011;55759;51.586;-1.758;2023-07-09T21:54:45;10.77;;;2.15;;
52244;SDS011;55759;51.586;-1.758;2023-07-09T21:57:17;10.00;;;2.67;;
52244;SDS011;55759;51.586;-1.758;2023-07-09T21:59:44;9.70;;;2.47;;
52244;SDS011;55759;51.586;-1.758;2023-07-09T22:02:14;11.13;;;2.70;;
52244;SDS011;55759;51.586;-1.758;2023-07-09T22:04:51;20.52;;;3.17;;
52244;SDS011;55759;51.586;-1.758;2023-07-09T22:07:23;13.98;;;2.65;;
52244;SDS011;55759;51.586;-1.758;2023-07-09T22:09:55;16.25;;;2.67;;
52244;SDS011;55759;51.586;-1.758;2023-07-09T22:12:21;11.65;;;2.22;;
52244;SDS011;55759;51.586;-1.758;2023-07-09T22:14:53;8.88;;;2.72;;
52244;SDS011;55759;51.586;-1.758;2023-07-09T22:17:23;14.10;;;2.70;;
52244;SDS011;55759;51.586;-1.758;2023-07-09T22:19:56;11.70;;;2.40;;
52244;SDS011;55759;51.586;-1.758;2023-07-09T22:22:23;14.85;;;2.92;;
52244;SDS011;55759;51.586;-1.758;2023-07-09T22:24:50;13.95;;;2.92;;
52244;SDS011;55759;51.586;-1.758;2023-07-09T22:27:16;13.45;;;2.80;;
52244;SDS011;55759;51.586;-1.758;2023-07-09T22:29:43;9.20;;;2.70;;
52244;SDS011;55759;51.586;-1.758;2023-07-09T22:32:19;12.10;;;2.70;;
52244;SDS011;55759;51.586;-1.758;2023-07-09T22:34:47;14.73;;;3.15;;
52244;SDS011;55759;51.586;-1.758;2023-07-09T22:37:15;20.13;;;3.72;;
52244;SDS011;55759;51.586;-1.758;2023-07-09T22:39:41;13.40;;;2.80;;
52244;SDS011;55759;51.586;-1.758;2023-07-09T22:42:07;11.90;;;3.55;;
52244;SDS011;55759;51.586;-1.758;2023-07-09T22:44:33;13.10;;;2.78;;
52244;SDS011;55759;51.586;-1.758;2023-07-09T22:46:59;11.63;;;3.20;;
52244;SDS011;55759;51.586;-1.758;2023-07-09T22:49:33;14.07;;;3.42;;
52244;SDS011;55759;51.586;-1.758;2023-07-09T22:51:59;14.60;;;3.70;;
52244;SDS011;55759;51.586;-1.758;2023-07-09T22:54:25;15.20;;;3.50;;
52244;SDS011;55759;51.586;-1.758;2023-07-09T22:56:51;17.30;;;3.55;;
52244;SDS011;55759;51.586;-1.758;2023-07-09T22:59:16;11.65;;;3.33;;
52244;SDS011;55759;51.586;-1.758;2023-07-09T23:01:42;12.02;;;3.35;;
52244;SDS011;55759;51.586;-1.758;2023-07-09T23:04:12;19.90;;;3.65;;
52244;SDS011;55759;51.586;-1.758;2023-07-09T23:06:42;17.83;;;4.10;;
52244;SDS011;55759;51.586;-1.758;2023-07-09T23:09:08;12.00;;;3.38;;
52244;SDS011;55759;51.586;-1.758;2023-07-09T23:11:35;14.63;;;3.60;;
52244;SDS011;55759;51.586;-1.758;2023-07-09T23:14:08;17.85;;;3.90;;
52244;SDS011;55759;51.586;-1.758;2023-07-09T23:16:49;15.55;;;4.00;;
52244;SDS011;55759;51.586;-1.758;2023-07-09T23:19:22;19.80;;;3.88;;
52244;SDS011;55759;51.586;-1.758;2023-07-09T23:21:50;12.27;;;3.70;;
52244;SDS011;55759;51.586;-1.758;2023-07-09T23:24:17;17.88;;;3.88;;
52244;SDS011;55759;51.586;-1.758;2023-07-09T23:26:47;12.48;;;3.50;;
52244;SDS011;55759;51.586;-1.758;2023-07-09T23:29:15;15.27;;;3.80;;
52244;SDS011;55759;51.586;-1.758;2023-07-09T23:31:43;14.23;;;4.18;;
52244;SDS011;55759;51.586;-1.758;2023-07-09T23:34:13;15.98;;;3.85;;
52244;SDS011;55759;51.586;-1.758;2023-07-09T23:36:42;14.52;;;4.05;;
52244;SDS011;55759;51.586;-1.758;2023-07-09T23:39:08;15.68;;;4.00;;
52244;SDS011;55759;51.586;-1.758;2023-07-09T23:41:37;17.20;;;4.10;;
52244;SDS011;55759;51.586;-1.758;2023-07-09T23:44:14;14.38;;;3.60;;
52244;SDS011;55759;51.586;-1.758;2023-07-09T23:46:42;13.52;;;3.90;;
52244;SDS011;55759;51.586;-1.758;2023-07-09T23:49:22;15.02;;;3.78;;
52244;SDS011;55759;51.586;-1.758;2023-07-09T23:51:52;16.17;;;3.92;;
52244;SDS011;55759;51.586;-1.758;2023-07-09T23:54:22;15.90;;;3.92;;
52244;SDS011;55759;51.586;-1.758;2023-07-09T23:56:49;11.85;;;3.85;;
52244;SDS011;55759;51.586;-1.758;2023-07-09T23:59:19;14.88;;;3.97;;
